sensor_id;sensor_type;location;lat;lon;timestamp;P1;durP1;ratioP1;P2;durP2;ratioP2
69750;SDS011;57335;52.288;6.056;2023-02-11T00:00:19;23.35;;;5.95;;
69750;SDS011;57335;52.288;6.056;2023-02-11T00:02:46;23.35;;;5.60;;
69750;SDS011;57335;52.288;6.056;2023-02-11T00:05:13;16.48;;;5.47;;
69750;SDS011;57335;52.288;6.056;2023-02-11T00:07:40;19.88;;;6.22;;
69750;SDS011;57335;52.288;6.056;2023-02-11T00:10:07;22.70;;;5.70;;
69750;SDS011;57335;52.288;6.056;2023-02-11T00:12:34;16.55;;;6.03;;
69750;SDS011;57335;52.288;6.056;2023-02-11T00:15:02;20.25;;;5.30;;
69750;SDS011;57335;52.288;6.056;2023-02-11T00:17:30;18.35;;;4.78;;
69750;SDS011;57335;52.288;6.056;2023-02-11T00:19:57;20.75;;;6.15;;
69750;SDS011;57335;52.288;6.056;2023-02-11T00:22:23;18.55;;;5.60;;
69750;SDS011;57335;52.288;6.056;2023-02-11T00:24:50;21.48;;;5.47;;
69750;SDS011;57335;52.288;6.056;2023-02-11T00:27:16;20.73;;;5.97;;
69750;SDS011;57335;52.288;6.056;2023-02-11T00:29:43;19.63;;;5.70;;
69750;SDS011;57335;52.288;6.056;2023-02-11T00:32:09;17.00;;;5.20;;
69750;SDS011;57335;52.288;6.056;2023-02-11T00:34:36;16.55;;;5.25;;
69750;SDS011;57335;52.288;6.056;2023-02-11T00:37:03;17.90;;;5.55;;
69750;SDS011;57335;52.288;6.056;2023-02-11T00:39:30;23.85;;;5.07;;
69750;SDS011;57335;52.288;6.056;2023-02-11T00:41:56;18.10;;;4.90;;
69750;SDS011;57335;52.288;6.056;2023-02-11T00:44:23;18.15;;;5.03;;
69750;SDS011;57335;52.288;6.056;2023-02-11T00:46:50;15.65;;;4.75;;
69750;SDS011;57335;52.288;6.056;2023-02-11T00:49:16;15.60;;;4.97;;
69750;SDS011;57335;52.288;6.056;2023-02-11T00:51:43;17.63;;;5.10;;
69750;SDS011;57335;52.288;6.056;2023-02-11T00:54:10;16.50;;;5.10;;
69750;SDS011;57335;52.288;6.056;2023-02-11T00:56:36;16.65;;;4.93;;
69750;SDS011;57335;52.288;6.056;2023-02-11T00:59:03;18.90;;;5.38;;
69750;SDS011;57335;52.288;6.056;2023-02-11T01:01:29;20.48;;;4.93;;
69750;SDS011;57335;52.288;6.056;2023-02-11T01:03:56;20.48;;;4.85;;
69750;SDS011;57335;52.288;6.056;2023-02-11T01:06:22;16.70;;;4.63;;
69750;SDS011;57335;52.288;6.056;2023-02-11T01:08:49;22.88;;;5.68;;
69750;SDS011;57335;52.288;6.056;2023-02-11T01:11:17;17.13;;;5.03;;
69750;SDS011;57335;52.288;6.056;2023-02-11T01:13:45;17.90;;;5.28;;
69750;SDS011;57335;52.288;6.056;2023-02-11T01:16:12;19.50;;;5.05;;
69750;SDS011;57335;52.288;6.056;2023-02-11T01:18:39;16.92;;;4.40;;
69750;SDS011;57335;52.288;6.056;2023-02-11T01:21:06;20.80;;;5.03;;
69750;SDS011;57335;52.288;6.056;2023-02-11T01:23:32;14.50;;;4.53;;
69750;SDS011;57335;52.288;6.056;2023-02-11T01:25:59;19.52;;;4.82;;
69750;SDS011;57335;52.288;6.056;2023-02-11T01:28:26;20.35;;;5.40;;
69750;SDS011;57335;52.288;6.056;2023-02-11T01:30:54;17.95;;;4.60;;
69750;SDS011;57335;52.288;6.056;2023-02-11T01:33:21;14.27;;;4.22;;
69750;SDS011;57335;52.288;6.056;2023-02-11T01:35:49;16.15;;;4.40;;
69750;SDS011;57335;52.288;6.056;2023-02-11T01:38:17;21.05;;;5.00;;
69750;SDS011;57335;52.288;6.056;2023-02-11T01:40:56;18.20;;;5.25;;
69750;SDS011;57335;52.288;6.056;2023-02-11T01:43:30;20.38;;;4.38;;
69750;SDS011;57335;52.288;6.056;2023-02-11T01:46:05;15.57;;;4.93;;
69750;SDS011;57335;52.288;6.056;2023-02-11T01:48:43;14.48;;;4.25;;
69750;SDS011;57335;52.288;6.056;2023-02-11T01:53:44;18.27;;;4.35;;
69750;SDS011;57335;52.288;6.056;2023-02-11T01:56:12;12.80;;;3.60;;
69750;SDS011;57335;52.288;6.056;2023-02-11T01:58:40;17.23;;;5.28;;
69750;SDS011;57335;52.288;6.056;2023-02-11T02:01:12;19.98;;;4.90;;
69750;SDS011;57335;52.288;6.056;2023-02-11T02:03:43;13.70;;;4.38;;
69750;SDS011;57335;52.288;6.056;2023-02-11T02:06:15;19.58;;;4.78;;
69750;SDS011;57335;52.288;6.056;2023-02-11T02:08:52;15.80;;;4.13;;
69750;SDS011;57335;52.288;6.056;2023-02-11T02:11:26;14.13;;;4.57;;
69750;SDS011;57335;52.288;6.056;2023-02-11T02:13:52;16.85;;;4.63;;
69750;SDS011;57335;52.288;6.056;2023-02-11T02:16:20;21.92;;;5.45;;
69750;SDS011;57335;52.288;6.056;2023-02-11T02:24:58;25.95;;;5.63;;
69750;SDS011;57335;52.288;6.056;2023-02-11T02:30:54;17.85;;;4.68;;
69750;SDS011;57335;52.288;6.056;2023-02-11T02:33:41;18.52;;;4.55;;
69750;SDS011;57335;52.288;6.056;2023-02-11T02:36:30;20.42;;;4.88;;
69750;SDS011;57335;52.288;6.056;2023-02-11T02:39:07;19.73;;;4.93;;
69750;SDS011;57335;52.288;6.056;2023-02-11T02:41:39;23.38;;;5.20;;
69750;SDS011;57335;52.288;6.056;2023-02-11T02:44:07;19.27;;;5.18;;
69750;SDS011;57335;52.288;6.056;2023-02-11T02:46:34;19.65;;;5.20;;
69750;SDS011;57335;52.288;6.056;2023-02-11T02:49:01;17.52;;;4.80;;
69750;SDS011;57335;52.288;6.056;2023-02-11T03:02:28;20.55;;;5.15;;
69750;SDS011;57335;52.288;6.056;2023-02-11T03:05:03;20.58;;;5.70;;
69750;SDS011;57335;52.288;6.056;2023-02-11T03:07:39;20.73;;;5.32;;
69750;SDS011;57335;52.288;6.056;2023-02-11T03:10:15;21.08;;;5.45;;
69750;SDS011;57335;52.288;6.056;2023-02-11T03:12:46;17.20;;;5.82;;
69750;SDS011;57335;52.288;6.056;2023-02-11T03:15:14;19.48;;;5.80;;
69750;SDS011;57335;52.288;6.056;2023-02-11T03:17:44;20.98;;;6.05;;
69750;SDS011;57335;52.288;6.056;2023-02-11T03:20:13;21.02;;;6.63;;
69750;SDS011;57335;52.288;6.056;2023-02-11T03:22:49;25.90;;;7.07;;
69750;SDS011;57335;52.288;6.056;2023-02-11T03:25:27;22.05;;;5.82;;
69750;SDS011;57335;52.288;6.056;2023-02-11T03:30:45;19.98;;;6.10;;
69750;SDS011;57335;52.288;6.056;2023-02-11T03:33:26;21.98;;;6.18;;
69750;SDS011;57335;52.288;6.056;2023-02-11T03:36:02;15.93;;;5.93;;
69750;SDS011;57335;52.288;6.056;2023-02-11T03:38:34;16.98;;;5.90;;
69750;SDS011;57335;52.288;6.056;2023-02-11T03:41:03;21.23;;;5.97;;
69750;SDS011;57335;52.288;6.056;2023-02-11T03:43:34;17.90;;;5.93;;
69750;SDS011;57335;52.288;6.056;2023-02-11T03:46:06;19.35;;;6.97;;
69750;SDS011;57335;52.288;6.056;2023-02-11T03:48:37;21.77;;;6.57;;
69750;SDS011;57335;52.288;6.056;2023-02-11T03:51:08;22.50;;;6.80;;
69750;SDS011;57335;52.288;6.056;2023-02-11T03:53:38;20.88;;;7.03;;
69750;SDS011;57335;52.288;6.056;2023-02-11T03:56:08;23.83;;;6.50;;
69750;SDS011;57335;52.288;6.056;2023-02-11T03:58:38;25.13;;;7.40;;
69750;SDS011;57335;52.288;6.056;2023-02-11T04:01:05;19.65;;;6.72;;
69750;SDS011;57335;52.288;6.056;2023-02-11T04:03:32;24.95;;;7.15;;
69750;SDS011;57335;52.288;6.056;2023-02-11T04:05:58;23.77;;;7.15;;
69750;SDS011;57335;52.288;6.056;2023-02-11T04:08:25;21.90;;;7.35;;
69750;SDS011;57335;52.288;6.056;2023-02-11T04:13:17;18.33;;;6.63;;
69750;SDS011;57335;52.288;6.056;2023-02-11T04:15:44;21.83;;;6.93;;
69750;SDS011;57335;52.288;6.056;2023-02-11T04:18:13;22.63;;;6.78;;
69750;SDS011;57335;52.288;6.056;2023-02-11T04:20:40;18.70;;;7.32;;
69750;SDS011;57335;52.288;6.056;2023-02-11T04:23:06;22.05;;;7.20;;
69750;SDS011;57335;52.288;6.056;2023-02-11T04:25:33;23.90;;;8.18;;
69750;SDS011;57335;52.288;6.056;2023-02-11T04:27:59;22.35;;;8.30;;
69750;SDS011;57335;52.288;6.056;2023-02-11T04:30:26;24.60;;;8.13;;
69750;SDS011;57335;52.288;6.056;2023-02-11T04:32:52;25.00;;;8.38;;
69750;SDS011;57335;52.288;6.056;2023-02-11T04:35:19;27.77;;;8.70;;
69750;SDS011;57335;52.288;6.056;2023-02-11T04:37:46;21.25;;;8.23;;
69750;SDS011;57335;52.288;6.056;2023-02-11T04:40:12;24.20;;;7.82;;
69750;SDS011;57335;52.288;6.056;2023-02-11T04:42:39;24.13;;;8.32;;
69750;SDS011;57335;52.288;6.056;2023-02-11T04:45:05;25.40;;;8.85;;
69750;SDS011;57335;52.288;6.056;2023-02-11T04:47:32;32.00;;;10.18;;
69750;SDS011;57335;52.288;6.056;2023-02-11T04:49:59;25.85;;;9.48;;
69750;SDS011;57335;52.288;6.056;2023-02-11T04:52:25;24.45;;;8.82;;
69750;SDS011;57335;52.288;6.056;2023-02-11T04:54:52;23.38;;;9.43;;
69750;SDS011;57335;52.288;6.056;2023-02-11T04:57:18;26.67;;;9.20;;
69750;SDS011;57335;52.288;6.056;2023-02-11T04:59:45;26.60;;;8.75;;
69750;SDS011;57335;52.288;6.056;2023-02-11T05:02:11;25.50;;;9.40;;
69750;SDS011;57335;52.288;6.056;2023-02-11T05:04:37;26.65;;;9.55;;
69750;SDS011;57335;52.288;6.056;2023-02-11T05:07:04;25.27;;;10.20;;
69750;SDS011;57335;52.288;6.056;2023-02-11T05:09:30;28.45;;;10.15;;
69750;SDS011;57335;52.288;6.056;2023-02-11T05:11:57;26.45;;;9.15;;
69750;SDS011;57335;52.288;6.056;2023-02-11T05:14:23;28.90;;;10.30;;
69750;SDS011;57335;52.288;6.056;2023-02-11T05:16:50;30.05;;;10.98;;
69750;SDS011;57335;52.288;6.056;2023-02-11T05:19:16;26.90;;;9.75;;
69750;SDS011;57335;52.288;6.056;2023-02-11T05:21:43;29.88;;;11.30;;
69750;SDS011;57335;52.288;6.056;2023-02-11T05:24:27;23.75;;;9.52;;
69750;SDS011;57335;52.288;6.056;2023-02-11T05:26:53;30.65;;;10.00;;
69750;SDS011;57335;52.288;6.056;2023-02-11T05:29:19;30.65;;;11.48;;
69750;SDS011;57335;52.288;6.056;2023-02-11T05:31:46;28.55;;;10.25;;
69750;SDS011;57335;52.288;6.056;2023-02-11T05:34:12;34.50;;;11.23;;
69750;SDS011;57335;52.288;6.056;2023-02-11T05:36:39;28.45;;;10.70;;
69750;SDS011;57335;52.288;6.056;2023-02-11T05:39:06;31.80;;;11.98;;
69750;SDS011;57335;52.288;6.056;2023-02-11T05:41:32;31.88;;;11.68;;
69750;SDS011;57335;52.288;6.056;2023-02-11T05:43:58;36.17;;;11.55;;
69750;SDS011;57335;52.288;6.056;2023-02-11T05:46:25;33.00;;;12.18;;
69750;SDS011;57335;52.288;6.056;2023-02-11T05:48:52;34.65;;;12.13;;
69750;SDS011;57335;52.288;6.056;2023-02-11T05:51:18;35.28;;;12.20;;
69750;SDS011;57335;52.288;6.056;2023-02-11T05:53:44;36.60;;;12.50;;
69750;SDS011;57335;52.288;6.056;2023-02-11T05:56:11;35.40;;;12.65;;
69750;SDS011;57335;52.288;6.056;2023-02-11T05:58:37;37.03;;;13.02;;
69750;SDS011;57335;52.288;6.056;2023-02-11T06:01:04;39.00;;;13.00;;
69750;SDS011;57335;52.288;6.056;2023-02-11T06:03:30;39.08;;;12.93;;
69750;SDS011;57335;52.288;6.056;2023-02-11T06:05:57;31.40;;;12.70;;
69750;SDS011;57335;52.288;6.056;2023-02-11T06:08:23;36.10;;;12.73;;
69750;SDS011;57335;52.288;6.056;2023-02-11T06:10:50;33.08;;;11.85;;
69750;SDS011;57335;52.288;6.056;2023-02-11T06:13:16;36.97;;;12.13;;
69750;SDS011;57335;52.288;6.056;2023-02-11T06:15:43;37.28;;;14.23;;
69750;SDS011;57335;52.288;6.056;2023-02-11T06:18:09;35.97;;;12.68;;
69750;SDS011;57335;52.288;6.056;2023-02-11T06:20:36;35.25;;;13.27;;
69750;SDS011;57335;52.288;6.056;2023-02-11T06:23:03;43.13;;;14.13;;
69750;SDS011;57335;52.288;6.056;2023-02-11T06:27:56;33.53;;;12.93;;
69750;SDS011;57335;52.288;6.056;2023-02-11T06:30:22;36.70;;;12.77;;
69750;SDS011;57335;52.288;6.056;2023-02-11T06:32:48;36.13;;;13.07;;
69750;SDS011;57335;52.288;6.056;2023-02-11T06:35:15;36.17;;;13.45;;
69750;SDS011;57335;52.288;6.056;2023-02-11T06:37:41;39.75;;;13.63;;
69750;SDS011;57335;52.288;6.056;2023-02-11T06:40:09;32.35;;;12.63;;
69750;SDS011;57335;52.288;6.056;2023-02-11T06:42:36;37.22;;;13.35;;
69750;SDS011;57335;52.288;6.056;2023-02-11T06:45:03;36.13;;;13.35;;
69750;SDS011;57335;52.288;6.056;2023-02-11T06:47:30;38.35;;;13.85;;
69750;SDS011;57335;52.288;6.056;2023-02-11T06:49:56;37.10;;;13.27;;
69750;SDS011;57335;52.288;6.056;2023-02-11T06:52:23;31.70;;;12.95;;
69750;SDS011;57335;52.288;6.056;2023-02-11T06:54:49;39.42;;;13.77;;
69750;SDS011;57335;52.288;6.056;2023-02-11T06:57:15;37.08;;;13.98;;
69750;SDS011;57335;52.288;6.056;2023-02-11T06:59:42;37.10;;;14.05;;
69750;SDS011;57335;52.288;6.056;2023-02-11T07:02:08;42.33;;;13.93;;
69750;SDS011;57335;52.288;6.056;2023-02-11T07:04:35;39.20;;;13.43;;
69750;SDS011;57335;52.288;6.056;2023-02-11T07:07:02;37.45;;;13.30;;
69750;SDS011;57335;52.288;6.056;2023-02-11T07:09:28;37.17;;;13.38;;
69750;SDS011;57335;52.288;6.056;2023-02-11T07:11:54;33.67;;;13.00;;
69750;SDS011;57335;52.288;6.056;2023-02-11T07:14:21;43.00;;;13.85;;
69750;SDS011;57335;52.288;6.056;2023-02-11T07:16:47;40.00;;;13.18;;
69750;SDS011;57335;52.288;6.056;2023-02-11T07:19:14;36.72;;;12.52;;
69750;SDS011;57335;52.288;6.056;2023-02-11T07:21:40;37.92;;;12.93;;
69750;SDS011;57335;52.288;6.056;2023-02-11T07:24:07;37.08;;;13.40;;
69750;SDS011;57335;52.288;6.056;2023-02-11T07:26:36;38.78;;;13.40;;
69750;SDS011;57335;52.288;6.056;2023-02-11T07:29:03;45.33;;;13.40;;
69750;SDS011;57335;52.288;6.056;2023-02-11T07:31:30;36.08;;;13.50;;
69750;SDS011;57335;52.288;6.056;2023-02-11T07:33:57;34.35;;;12.88;;
69750;SDS011;57335;52.288;6.056;2023-02-11T07:36:26;44.63;;;13.55;;
69750;SDS011;57335;52.288;6.056;2023-02-11T07:38:55;39.88;;;13.23;;
69750;SDS011;57335;52.288;6.056;2023-02-11T07:41:22;35.45;;;13.45;;
69750;SDS011;57335;52.288;6.056;2023-02-11T07:43:49;44.72;;;13.65;;
69750;SDS011;57335;52.288;6.056;2023-02-11T07:46:17;39.95;;;13.65;;
69750;SDS011;57335;52.288;6.056;2023-02-11T07:48:46;41.45;;;14.07;;
69750;SDS011;57335;52.288;6.056;2023-02-11T07:51:22;38.13;;;13.25;;
69750;SDS011;57335;52.288;6.056;2023-02-11T07:53:50;38.05;;;13.48;;
69750;SDS011;57335;52.288;6.056;2023-02-11T07:56:17;44.47;;;13.52;;
69750;SDS011;57335;52.288;6.056;2023-02-11T07:58:45;37.25;;;13.82;;
69750;SDS011;57335;52.288;6.056;2023-02-11T08:01:13;38.03;;;13.30;;
69750;SDS011;57335;52.288;6.056;2023-02-11T08:03:42;38.53;;;13.13;;
69750;SDS011;57335;52.288;6.056;2023-02-11T08:06:09;37.08;;;13.70;;
69750;SDS011;57335;52.288;6.056;2023-02-11T08:08:37;40.72;;;13.05;;
69750;SDS011;57335;52.288;6.056;2023-02-11T08:11:05;35.97;;;12.88;;
69750;SDS011;57335;52.288;6.056;2023-02-11T08:13:33;39.80;;;13.82;;
69750;SDS011;57335;52.288;6.056;2023-02-11T08:16:00;35.40;;;13.23;;
69750;SDS011;57335;52.288;6.056;2023-02-11T08:18:26;32.78;;;12.23;;
69750;SDS011;57335;52.288;6.056;2023-02-11T08:20:52;36.47;;;13.88;;
69750;SDS011;57335;52.288;6.056;2023-02-11T08:23:19;39.95;;;13.43;;
69750;SDS011;57335;52.288;6.056;2023-02-11T08:25:45;38.95;;;13.43;;
69750;SDS011;57335;52.288;6.056;2023-02-11T08:28:12;38.95;;;13.82;;
69750;SDS011;57335;52.288;6.056;2023-02-11T08:30:38;36.88;;;13.73;;
69750;SDS011;57335;52.288;6.056;2023-02-11T08:33:05;32.13;;;12.43;;
69750;SDS011;57335;52.288;6.056;2023-02-11T08:35:33;32.17;;;12.70;;
69750;SDS011;57335;52.288;6.056;2023-02-11T08:38:00;37.35;;;13.05;;
69750;SDS011;57335;52.288;6.056;2023-02-11T08:40:26;37.35;;;13.00;;
69750;SDS011;57335;52.288;6.056;2023-02-11T08:42:53;35.75;;;12.63;;
69750;SDS011;57335;52.288;6.056;2023-02-11T08:45:19;32.13;;;13.25;;
69750;SDS011;57335;52.288;6.056;2023-02-11T08:47:45;36.75;;;13.32;;
69750;SDS011;57335;52.288;6.056;2023-02-11T08:50:12;32.55;;;12.98;;
69750;SDS011;57335;52.288;6.056;2023-02-11T08:52:38;36.45;;;13.23;;
69750;SDS011;57335;52.288;6.056;2023-02-11T08:55:05;33.65;;;13.07;;
69750;SDS011;57335;52.288;6.056;2023-02-11T08:57:31;37.05;;;12.52;;
69750;SDS011;57335;52.288;6.056;2023-02-11T08:59:58;37.20;;;12.52;;
69750;SDS011;57335;52.288;6.056;2023-02-11T09:02:24;35.83;;;13.30;;
69750;SDS011;57335;52.288;6.056;2023-02-11T09:04:51;33.88;;;12.25;;
69750;SDS011;57335;52.288;6.056;2023-02-11T09:07:17;36.75;;;12.20;;
69750;SDS011;57335;52.288;6.056;2023-02-11T09:09:43;35.70;;;12.35;;
69750;SDS011;57335;52.288;6.056;2023-02-11T09:12:10;32.63;;;12.05;;
69750;SDS011;57335;52.288;6.056;2023-02-11T09:14:36;30.38;;;11.90;;
69750;SDS011;57335;52.288;6.056;2023-02-11T09:17:02;32.47;;;12.05;;
69750;SDS011;57335;52.288;6.056;2023-02-11T09:19:29;32.75;;;12.35;;
69750;SDS011;57335;52.288;6.056;2023-02-11T09:21:55;30.63;;;11.73;;
69750;SDS011;57335;52.288;6.056;2023-02-11T09:24:22;29.98;;;12.55;;
69750;SDS011;57335;52.288;6.056;2023-02-11T09:26:48;31.70;;;11.85;;
69750;SDS011;57335;52.288;6.056;2023-02-11T09:29:14;31.13;;;12.18;;
69750;SDS011;57335;52.288;6.056;2023-02-11T09:31:41;31.00;;;11.60;;
69750;SDS011;57335;52.288;6.056;2023-02-11T09:34:09;28.33;;;11.50;;
69750;SDS011;57335;52.288;6.056;2023-02-11T09:36:36;29.48;;;11.80;;
69750;SDS011;57335;52.288;6.056;2023-02-11T09:39:05;28.98;;;11.63;;
69750;SDS011;57335;52.288;6.056;2023-02-11T09:44:22;29.30;;;11.35;;
69750;SDS011;57335;52.288;6.056;2023-02-11T09:46:55;26.08;;;10.75;;
69750;SDS011;57335;52.288;6.056;2023-02-11T09:49:29;28.33;;;10.48;;
69750;SDS011;57335;52.288;6.056;2023-02-11T09:52:34;24.60;;;10.48;;
69750;SDS011;57335;52.288;6.056;2023-02-11T09:55:03;27.25;;;10.70;;
69750;SDS011;57335;52.288;6.056;2023-02-11T09:57:39;26.45;;;10.05;;
69750;SDS011;57335;52.288;6.056;2023-02-11T10:00:16;25.05;;;9.73;;
69750;SDS011;57335;52.288;6.056;2023-02-11T10:09:27;24.13;;;9.75;;
69750;SDS011;57335;52.288;6.056;2023-02-11T10:20:32;26.85;;;9.93;;
69750;SDS011;57335;52.288;6.056;2023-02-11T10:23:08;24.90;;;8.57;;
69750;SDS011;57335;52.288;6.056;2023-02-11T10:25:44;22.73;;;8.55;;
69750;SDS011;57335;52.288;6.056;2023-02-11T10:28:17;23.13;;;8.20;;
69750;SDS011;57335;52.288;6.056;2023-02-11T10:31:02;22.70;;;8.77;;
69750;SDS011;57335;52.288;6.056;2023-02-11T10:34:15;21.52;;;9.30;;
69750;SDS011;57335;52.288;6.056;2023-02-11T10:36:27;20.73;;;8.18;;
69750;SDS011;57335;52.288;6.056;2023-02-11T10:38:59;18.17;;;8.05;;
69750;SDS011;57335;52.288;6.056;2023-02-11T10:41:31;22.45;;;8.50;;
69750;SDS011;57335;52.288;6.056;2023-02-11T10:44:01;21.50;;;8.25;;
69750;SDS011;57335;52.288;6.056;2023-02-11T10:46:32;23.02;;;9.32;;
69750;SDS011;57335;52.288;6.056;2023-02-11T10:49:02;18.67;;;7.63;;
69750;SDS011;57335;52.288;6.056;2023-02-11T10:51:30;19.58;;;7.85;;
69750;SDS011;57335;52.288;6.056;2023-02-11T10:54:09;22.15;;;8.80;;
69750;SDS011;57335;52.288;6.056;2023-02-11T11:02:19;21.45;;;8.50;;
69750;SDS011;57335;52.288;6.056;2023-02-11T11:04:49;22.88;;;8.15;;
69750;SDS011;57335;52.288;6.056;2023-02-11T11:07:22;17.70;;;7.57;;
69750;SDS011;57335;52.288;6.056;2023-02-11T11:09:57;22.95;;;7.65;;
69750;SDS011;57335;52.288;6.056;2023-02-11T11:15:30;18.88;;;8.10;;
69750;SDS011;57335;52.288;6.056;2023-02-11T11:18:08;18.38;;;6.97;;
69750;SDS011;57335;52.288;6.056;2023-02-11T11:20:54;17.80;;;6.80;;
69750;SDS011;57335;52.288;6.056;2023-02-11T11:23:23;19.88;;;7.72;;
69750;SDS011;57335;52.288;6.056;2023-02-11T11:26:25;15.45;;;6.57;;
69750;SDS011;57335;52.288;6.056;2023-02-11T11:29:18;17.63;;;6.97;;
69750;SDS011;57335;52.288;6.056;2023-02-11T11:34:27;16.67;;;6.93;;
69750;SDS011;57335;52.288;6.056;2023-02-11T11:36:57;15.55;;;6.40;;
69750;SDS011;57335;52.288;6.056;2023-02-11T11:39:29;16.15;;;6.05;;
69750;SDS011;57335;52.288;6.056;2023-02-11T11:41:58;15.70;;;6.32;;
69750;SDS011;57335;52.288;6.056;2023-02-11T11:44:45;15.80;;;5.70;;
69750;SDS011;57335;52.288;6.056;2023-02-11T11:47:34;14.38;;;6.28;;
69750;SDS011;57335;52.288;6.056;2023-02-11T11:50:34;14.93;;;5.57;;
69750;SDS011;57335;52.288;6.056;2023-02-11T11:53:14;13.00;;;5.53;;
69750;SDS011;57335;52.288;6.056;2023-02-11T11:55:47;16.30;;;6.13;;
69750;SDS011;57335;52.288;6.056;2023-02-11T11:58:26;16.90;;;6.75;;
69750;SDS011;57335;52.288;6.056;2023-02-11T12:09:39;11.68;;;5.28;;
69750;SDS011;57335;52.288;6.056;2023-02-11T12:12:24;14.43;;;5.65;;
69750;SDS011;57335;52.288;6.056;2023-02-11T12:18:00;12.80;;;5.72;;
69750;SDS011;57335;52.288;6.056;2023-02-11T12:20:35;11.35;;;4.50;;
69750;SDS011;57335;52.288;6.056;2023-02-11T12:31:58;13.73;;;4.15;;
69750;SDS011;57335;52.288;6.056;2023-02-11T12:34:34;9.40;;;4.28;;
69750;SDS011;57335;52.288;6.056;2023-02-11T12:37:13;14.10;;;4.82;;
69750;SDS011;57335;52.288;6.056;2023-02-11T12:42:51;12.90;;;4.28;;
69750;SDS011;57335;52.288;6.056;2023-02-11T12:51:19;12.60;;;4.65;;
69750;SDS011;57335;52.288;6.056;2023-02-11T12:56:50;9.18;;;4.15;;
69750;SDS011;57335;52.288;6.056;2023-02-11T13:05:11;11.45;;;4.03;;
69750;SDS011;57335;52.288;6.056;2023-02-11T13:07:48;8.05;;;3.42;;
69750;SDS011;57335;52.288;6.056;2023-02-11T13:12:55;9.60;;;4.10;;
69750;SDS011;57335;52.288;6.056;2023-02-11T13:15:24;9.57;;;3.50;;
69750;SDS011;57335;52.288;6.056;2023-02-11T13:18:00;10.70;;;3.75;;
69750;SDS011;57335;52.288;6.056;2023-02-11T13:20:40;8.45;;;3.58;;
69750;SDS011;57335;52.288;6.056;2023-02-11T13:25:58;12.75;;;4.30;;
69750;SDS011;57335;52.288;6.056;2023-02-11T13:28:53;11.10;;;4.03;;
69750;SDS011;57335;52.288;6.056;2023-02-11T13:31:40;11.52;;;4.28;;
69750;SDS011;57335;52.288;6.056;2023-02-11T13:34:21;9.77;;;4.18;;
69750;SDS011;57335;52.288;6.056;2023-02-11T13:36:53;10.68;;;4.25;;
69750;SDS011;57335;52.288;6.056;2023-02-11T13:39:20;10.68;;;4.13;;
69750;SDS011;57335;52.288;6.056;2023-02-11T13:41:47;12.02;;;4.72;;
69750;SDS011;57335;52.288;6.056;2023-02-11T13:44:19;10.10;;;4.07;;
69750;SDS011;57335;52.288;6.056;2023-02-11T13:46:59;12.43;;;4.43;;
69750;SDS011;57335;52.288;6.056;2023-02-11T13:54:36;11.27;;;4.47;;
69750;SDS011;57335;52.288;6.056;2023-02-11T13:59:49;10.88;;;4.22;;
69750;SDS011;57335;52.288;6.056;2023-02-11T14:02:27;11.07;;;4.22;;
69750;SDS011;57335;52.288;6.056;2023-02-11T14:07:30;8.90;;;3.63;;
69750;SDS011;57335;52.288;6.056;2023-02-11T14:09:57;11.73;;;4.47;;
69750;SDS011;57335;52.288;6.056;2023-02-11T14:12:29;10.80;;;4.32;;
69750;SDS011;57335;52.288;6.056;2023-02-11T14:14:59;10.63;;;3.67;;
69750;SDS011;57335;52.288;6.056;2023-02-11T14:17:43;9.80;;;3.47;;
69750;SDS011;57335;52.288;6.056;2023-02-11T14:23:01;9.45;;;3.83;;
69750;SDS011;57335;52.288;6.056;2023-02-11T14:25:29;10.93;;;3.95;;
69750;SDS011;57335;52.288;6.056;2023-02-11T14:27:57;9.85;;;3.80;;
69750;SDS011;57335;52.288;6.056;2023-02-11T14:30:41;10.00;;;3.80;;
69750;SDS011;57335;52.288;6.056;2023-02-11T14:36:22;12.23;;;3.70;;
69750;SDS011;57335;52.288;6.056;2023-02-11T14:42:18;10.63;;;3.95;;
69750;SDS011;57335;52.288;6.056;2023-02-11T14:44:48;13.95;;;4.22;;
69750;SDS011;57335;52.288;6.056;2023-02-11T14:48:03;10.27;;;3.70;;
69750;SDS011;57335;52.288;6.056;2023-02-11T14:50:06;10.10;;;3.70;;
69750;SDS011;57335;52.288;6.056;2023-02-11T14:52:40;11.50;;;3.78;;
69750;SDS011;57335;52.288;6.056;2023-02-11T14:55:43;11.52;;;3.00;;
69750;SDS011;57335;52.288;6.056;2023-02-11T14:58:16;9.77;;;3.13;;
69750;SDS011;57335;52.288;6.056;2023-02-11T15:00:48;6.93;;;2.80;;
69750;SDS011;57335;52.288;6.056;2023-02-11T15:03:29;10.13;;;3.05;;
69750;SDS011;57335;52.288;6.056;2023-02-11T15:06:15;9.02;;;3.22;;
69750;SDS011;57335;52.288;6.056;2023-02-11T15:08:46;9.18;;;3.47;;
69750;SDS011;57335;52.288;6.056;2023-02-11T15:11:17;9.07;;;3.08;;
69750;SDS011;57335;52.288;6.056;2023-02-11T15:13:46;8.73;;;3.13;;
69750;SDS011;57335;52.288;6.056;2023-02-11T15:16:15;9.52;;;3.30;;
69750;SDS011;57335;52.288;6.056;2023-02-11T15:19:03;8.50;;;3.03;;
69750;SDS011;57335;52.288;6.056;2023-02-11T15:21:33;9.45;;;3.13;;
69750;SDS011;57335;52.288;6.056;2023-02-11T15:24:02;10.77;;;3.30;;
69750;SDS011;57335;52.288;6.056;2023-02-11T15:26:31;8.55;;;2.88;;
69750;SDS011;57335;52.288;6.056;2023-02-11T15:28:58;8.30;;;3.20;;
69750;SDS011;57335;52.288;6.056;2023-02-11T15:31:25;9.02;;;3.20;;
69750;SDS011;57335;52.288;6.056;2023-02-11T15:33:53;9.68;;;3.38;;
69750;SDS011;57335;52.288;6.056;2023-02-11T15:36:20;9.52;;;3.25;;
69750;SDS011;57335;52.288;6.056;2023-02-11T15:41:41;8.05;;;3.20;;
69750;SDS011;57335;52.288;6.056;2023-02-11T15:44:24;9.18;;;3.35;;
69750;SDS011;57335;52.288;6.056;2023-02-11T15:46:55;8.30;;;2.97;;
69750;SDS011;57335;52.288;6.056;2023-02-11T15:49:22;9.07;;;3.20;;
69750;SDS011;57335;52.288;6.056;2023-02-11T15:51:50;8.50;;;3.20;;
69750;SDS011;57335;52.288;6.056;2023-02-11T15:54:25;8.93;;;3.20;;
69750;SDS011;57335;52.288;6.056;2023-02-11T15:56:58;8.43;;;3.00;;
69750;SDS011;57335;52.288;6.056;2023-02-11T16:04:53;11.27;;;2.97;;
69750;SDS011;57335;52.288;6.056;2023-02-11T16:10:15;11.18;;;3.92;;
69750;SDS011;57335;52.288;6.056;2023-02-11T16:18:19;9.93;;;3.17;;
69750;SDS011;57335;52.288;6.056;2023-02-11T16:21:04;10.30;;;3.20;;
69750;SDS011;57335;52.288;6.056;2023-02-11T16:23:35;9.13;;;3.10;;
69750;SDS011;57335;52.288;6.056;2023-02-11T16:26:06;10.63;;;3.42;;
69750;SDS011;57335;52.288;6.056;2023-02-11T16:29:01;8.32;;;3.40;;
69750;SDS011;57335;52.288;6.056;2023-02-11T16:33:59;11.10;;;3.00;;
69750;SDS011;57335;52.288;6.056;2023-02-11T16:36:26;8.80;;;2.75;;
69750;SDS011;57335;52.288;6.056;2023-02-11T16:38:52;10.23;;;2.70;;
69750;SDS011;57335;52.288;6.056;2023-02-11T16:41:18;10.27;;;2.85;;
69750;SDS011;57335;52.288;6.056;2023-02-11T16:43:45;8.45;;;2.50;;
69750;SDS011;57335;52.288;6.056;2023-02-11T16:46:14;9.07;;;2.88;;
69750;SDS011;57335;52.288;6.056;2023-02-11T16:48:41;9.05;;;2.92;;
69750;SDS011;57335;52.288;6.056;2023-02-11T16:51:09;9.90;;;2.65;;
69750;SDS011;57335;52.288;6.056;2023-02-11T16:53:37;10.20;;;3.08;;
69750;SDS011;57335;52.288;6.056;2023-02-11T16:56:03;11.98;;;3.33;;
69750;SDS011;57335;52.288;6.056;2023-02-11T16:58:31;8.20;;;2.90;;
69750;SDS011;57335;52.288;6.056;2023-02-11T17:00:57;8.45;;;3.00;;
69750;SDS011;57335;52.288;6.056;2023-02-11T17:03:24;11.75;;;3.13;;
69750;SDS011;57335;52.288;6.056;2023-02-11T17:05:55;8.73;;;3.20;;
69750;SDS011;57335;52.288;6.056;2023-02-11T17:08:21;11.00;;;3.00;;
69750;SDS011;57335;52.288;6.056;2023-02-11T17:10:50;11.23;;;3.35;;